Time;durP1;ratioP1;P1;durP2;ratioP2;P2;SDS_P1;SDS_P2;PMS_P1;PMS_P2;Temp;Humidity;BMP_temperature;BMP_pressure;BME280_temperature;BME280_humidity;BME280_pressure;Samples;Min_cycle;Max_cycle;Signal;HPM_P1;HPM_P2
2021/07/31 00:01:56;;;;;;;;;;;;;;;;;;2137439;59;1256;-69
2021/07/31 00:04:22;;;;;;;;;;;;;;;;;;2139011;67;1168;-68
2021/07/31 00:06:47;;;;;;;;;;;;;;;;;;2136413;67;1992;-69
2021/07/31 00:09:12;;;;;;;;;;;;;;;;;;2138633;67;1513;-67
2021/07/31 00:11:37;;;;;;;;;;;;;;;;;;2139079;59;1830;-69
2021/07/31 00:14:02;;;;;;;;;;;;;;;;;;2136912;59;2873;-68
2021/07/31 00:16:27;;;;;;;;;;;;;;;;;;2137748;67;1153;-70
2021/07/31 00:18:53;;;;;;;;;;;;;;;;;;2137449;67;1433;-68
2021/07/31 00:21:18;;;;;;;;;;;;;;;;;;2138424;67;1208;-68
2021/07/31 00:23:44;;;;;;;;;;;;;;;;;;2137211;67;2362;-68
2021/07/31 00:26:09;;;;;;;;;;;;;;;;;;2137423;67;1943;-68
2021/07/31 00:28:34;;;;;;;;;;;;;;;;;;2137100;67;1285;-70
2021/07/31 00:30:59;;;;;;;;;;;;;;;;;;2136878;67;1095;-68
2021/07/31 00:33:24;;;;;;;;;;;;;;;;;;2139011;67;1188;-68
2021/07/31 00:35:49;;;;;;;;;;;;;;;;;;2137422;67;1228;-68
2021/07/31 00:38:15;;;;;;;;;;;;;;;;;;2137535;67;1411;-69
2021/07/31 00:40:41;;;;;;;;;;;;;;;;;;2142551;53;2237;-72
2021/07/31 00:43:07;;;;;;;;;;;;;;;;;;2140937;59;1513;-72
2021/07/31 00:45:33;;;;;;;;;;;;;;;;;;2140108;66;1556;-73
2021/07/31 00:47:58;;;;;;;;;;;;;;;;;;2140511;66;1987;-69
2021/07/31 00:50:23;;;;;;;;;;;;;;;;;;2140455;59;2288;-70
2021/07/31 00:52:48;;;;;;;;;;;;;;;;;;2136708;59;2225;-73
2021/07/31 00:55:14;;;;;;;;;;;;;;;;;;2137862;67;2420;-70
2021/07/31 00:57:40;;;;;;;;;;;;;;;;;;2135194;59;1191;-72
2021/07/31 01:00:06;;;;;;;;;;;;;;;;;;2137726;67;1333;-70
2021/07/31 01:02:31;;;;;;;;;;;;;;;;;;2135849;59;1200;-74
2021/07/31 01:04:56;;;;;;;;;;;;;;;;;;2135478;67;1133;-71
2021/07/31 01:07:21;;;;;;;;;;;;;;;;;;2137063;67;2009;-71
2021/07/31 01:09:47;;;;;;;;;;;;;;;;;;2136875;67;1222;-70
2021/07/31 01:12:12;;;;;;;;;;;;;;;;;;2137452;67;1283;-71
2021/07/31 01:14:37;;;;;;;;;;;;;;;;;;2135950;59;2219;-74
2021/07/31 01:17:03;;;;;;;;;;;;;;;;;;2136058;67;2293;-70
2021/07/31 01:19:28;;;;;;;;;;;;;;;;;;2135683;67;1197;-71
2021/07/31 01:21:53;;;;;;;;;;;;;;;;;;2132061;67;1795;-71
2021/07/31 01:24:18;;;;;;;;;;;;;;;;;;2136411;59;2566;-70
2021/07/31 01:26:45;;;;;;;;;;;;;;;;;;2135186;67;1928;-72
2021/07/31 01:29:11;;;;;;;;;;;;;;;;;;2136098;67;1149;-72
2021/07/31 01:31:36;;;;;;;;;;;;;;;;;;2135742;67;1229;-73
2021/07/31 01:34:02;;;;;;;;;;;;;;;;;;2137184;67;1306;-69
2021/07/31 01:36:28;;;;;;;;;;;;;;;;;;2137208;67;1062;-74
2021/07/31 01:38:53;;;;;;;;;;;;;;;;;;2135209;67;1228;-71
2021/07/31 01:41:18;;;;;;;;;;;;;;;;;;2137218;59;1183;-73
2021/07/31 01:43:44;;;;;;;;;;;;;;;;;;2136170;67;1410;-70
2021/07/31 01:46:09;;;;;;;;;;;;;;;;;;2131980;67;1932;-71
2021/07/31 01:48:34;;;;;;;;;;;;;;;;;;2137120;67;971;-73
2021/07/31 01:50:59;;;;;;;;;;;;;;;;;;2137387;60;2255;-70
2021/07/31 01:53:24;;;;;;;;;;;;;;;;;;2135437;59;2437;-72
2021/07/31 01:55:50;;;;;;;;;;;;;;;;;;2133875;67;1600;-70
2021/07/31 01:58:15;;;;;;;;;;;;;;;;;;2134720;67;1059;-72
2021/07/31 02:00:40;;;;;;;;;;;;;;;;;;2135447;59;1229;-70
2021/07/31 02:03:05;;;;;;;;;;;;;;;;;;2137371;59;1256;-73
2021/07/31 02:05:30;;;;;;;;;;;;;;;;;;2135906;67;1232;-71
2021/07/31 02:07:55;;;;;;;;;;;;;;;;;;2136163;67;1988;-72
2021/07/31 02:10:21;;;;;;;;;;;;;;;;;;2134947;67;1156;-71
2021/07/31 02:12:46;;;;;;;;;;;;;;;;;;2136006;67;1336;-70
2021/07/31 02:15:11;;;;;;;;;;;;;;;;;;2136163;59;2169;-72
2021/07/31 02:17:36;;;;;;;;;;;;;;;;;;2135677;59;2733;-71
2021/07/31 02:20:01;;;;;;;;;;;;;;;;;;2136768;67;1236;-72
2021/07/31 02:22:26;;;;;;;;;;;;;;;;;;2135022;67;1131;-71
2021/07/31 02:24:52;;;;;;;;;;;;;;;;;;2135696;59;2342;-72
2021/07/31 02:27:17;;;;;;;;;;;;;;;;;;2137066;67;1971;-70
2021/07/31 02:29:42;;;;;;;;;;;;;;;;;;2134110;67;1152;-73
2021/07/31 02:32:07;;;;;;;;;;;;;;;;;;2135262;67;1209;-70
2021/07/31 02:34:33;;;;;;;;;;;;;;;;;;2134887;67;1215;-75
2021/07/31 02:36:58;;;;;;;;;;;;;;;;;;2134909;67;1403;-74
2021/07/31 02:39:23;;;;;;;;;;;;;;;;;;2138056;67;1140;-70
2021/07/31 02:41:48;;;;;;;;;;;;;;;;;;2134143;59;1193;-72
2021/07/31 02:44:13;;;;;;;;;;;;;;;;;;2135639;67;2521;-71
2021/07/31 02:46:38;;;;;;;;;;;;;;;;;;2135615;67;1968;-73
2021/07/31 02:49:04;;;;;;;;;;;;;;;;;;2137802;67;1450;-70
2021/07/31 02:51:29;;;;;;;;;;;;;;;;;;2136669;67;1442;-74
2021/07/31 02:53:54;;;;;;;;;;;;;;;;;;2135020;60;2644;-72
2021/07/31 02:56:19;;;;;;;;;;;;;;;;;;2136715;67;1288;-73
2021/07/31 02:58:44;;;;;;;;;;;;;;;;;;2135917;67;981;-70
2021/07/31 03:01:09;;;;;;;;;;;;;;;;;;2136707;59;1773;-71
2021/07/31 03:03:35;;;;;;;;;;;;;;;;;;2137567;67;1143;-75
2021/07/31 03:06:00;;;;;;;;;;;;;;;;;;2134416;63;1932;-71
2021/07/31 03:08:27;;;;;;;;;;;;;;;;;;2136489;67;1038;-72
2021/07/31 03:11:03;;;;;;;;;;;;;;;;;;2136201;67;1253;-71
2021/07/31 03:13:28;;;;;;;;;;;;;;;;;;2135220;67;1171;-72
2021/07/31 03:15:53;;;;;;;;;;;;;;;;;;2135501;62;2501;-74
2021/07/31 03:18:19;;;;;;;;;;;;;;;;;;2136228;59;2278;-71
2021/07/31 03:20:45;;;;;;;;;;;;;;;;;;2135941;67;1263;-72
2021/07/31 03:23:11;;;;;;;;;;;;;;;;;;2137405;67;2497;-73
2021/07/31 03:25:36;;;;;;;;;;;;;;;;;;2136465;59;1257;-73
2021/07/31 03:28:01;;;;;;;;;;;;;;;;;;2135524;67;1933;-72
2021/07/31 03:30:26;;;;;;;;;;;;;;;;;;2135503;67;1204;-74
2021/07/31 03:32:52;;;;;;;;;;;;;;;;;;2134745;67;1300;-70
2021/07/31 03:35:17;;;;;;;;;;;;;;;;;;2135678;67;1204;-70
2021/07/31 03:37:43;;;;;;;;;;;;;;;;;;2136081;67;1208;-72
2021/07/31 03:40:08;;;;;;;;;;;;;;;;;;2137028;67;1157;-71
2021/07/31 03:42:33;;;;;;;;;;;;;;;;;;2136403;59;1335;-72
2021/07/31 03:44:58;;;;;;;;;;;;;;;;;;2135625;67;1113;-71
2021/07/31 03:47:23;;;;;;;;;;;;;;;;;;2136836;67;1923;-73
2021/07/31 03:49:49;;;;;;;;;;;;;;;;;;2136255;67;1135;-72
2021/07/31 03:52:14;;;;;;;;;;;;;;;;;;2136820;67;1612;-70
2021/07/31 03:54:39;;;;;;;;;;;;;;;;;;2133833;59;2548;-73
2021/07/31 03:57:04;;;;;;;;;;;;;;;;;;2135530;67;1282;-70
2021/07/31 03:59:30;;;;;;;;;;;;;;;;;;2135463;67;1296;-72
2021/07/31 04:01:56;;;;;;;;;;;;;;;;;;2136803;59;1240;-72
2021/07/31 04:04:21;;;;;;;;;;;;;;;;;;2135318;67;1924;-71
2021/07/31 04:06:46;;;;;;;;;;;;;;;;;;2134777;67;2500;-74
2021/07/31 04:09:11;;;;;;;;;;;;;;;;;;2136534;67;2803;-71
2021/07/31 04:11:36;;;;;;;;;;;;;;;;;;2136743;67;1266;-71
2021/07/31 04:14:01;;;;;;;;;;;;;;;;;;2135833;67;1157;-71
2021/07/31 04:16:27;;;;;;;;;;;;;;;;;;2136159;59;2153;-70
2021/07/31 04:18:52;;;;;;;;;;;;;;;;;;2136774;59;2262;-71
2021/07/31 04:21:17;;;;;;;;;;;;;;;;;;2137641;67;1240;-70
2021/07/31 04:23:42;;;;;;;;;;;;;;;;;;2137300;59;2471;-72
2021/07/31 04:26:11;;;;;;;;;;;;;;;;;;2138545;67;1979;-71
2021/07/31 04:28:36;;;;;;;;;;;;;;;;;;2135780;67;1088;-74
2021/07/31 04:31:28;;;;;;;;;;;;;;;;;;2135701;67;1227;-70
2021/07/31 04:33:56;;;;;;;;;;;;;;;;;;2134522;67;1355;-72
2021/07/31 04:36:21;;;;;;;;;;;;;;;;;;2136372;67;1813;-71
2021/07/31 04:38:46;;;;;;;;;;;;;;;;;;2135380;67;1186;-72
2021/07/31 04:41:11;;;;;;;;;;;;;;;;;;2136422;59;1266;-72
2021/07/31 04:43:37;;;;;;;;;;;;;;;;;;2132238;67;1647;-73
2021/07/31 04:46:02;;;;;;;;;;;;;;;;;;2136348;67;1984;-73
2021/07/31 04:48:28;;;;;;;;;;;;;;;;;;2138383;59;1703;-71
2021/07/31 04:50:56;;;;;;;;;;;;;;;;;;2135784;67;1307;-70
2021/07/31 04:53:21;;;;;;;;;;;;;;;;;;2137798;67;2483;-70
2021/07/31 04:55:46;;;;;;;;;;;;;;;;;;2136062;59;2526;-71
2021/07/31 04:58:11;;;;;;;;;;;;;;;;;;2137099;67;1928;-71
2021/07/31 05:00:36;;;;;;;;;;;;;;;;;;2135395;67;1297;-74
2021/07/31 05:03:05;;;;;;;;;;;;;;;;;;2136886;59;1498;-71
2021/07/31 05:05:31;;;;;;;;;;;;;;;;;;2137158;67;1223;-71
2021/07/31 05:07:56;;;;;;;;;;;;;;;;;;2137192;67;1931;-72
2021/07/31 05:10:21;;;;;;;;;;;;;;;;;;2136136;67;1168;-71
2021/07/31 05:12:46;;;;;;;;;;;;;;;;;;2135275;67;1176;-72
2021/07/31 05:15:11;;;;;;;;;;;;;;;;;;2136548;67;1169;-72
2021/07/31 05:17:36;;;;;;;;;;;;;;;;;;2134988;59;2418;-73
2021/07/31 05:20:02;;;;;;;;;;;;;;;;;;2134699;59;2256;-71
2021/07/31 05:22:27;;;;;;;;;;;;;;;;;;2136872;67;1410;-70
2021/07/31 05:24:53;;;;;;;;;;;;;;;;;;2135058;59;1925;-71
2021/07/31 05:27:19;;;;;;;;;;;;;;;;;;2135050;67;1925;-73
2021/07/31 05:29:44;;;;;;;;;;;;;;;;;;2137296;67;1375;-71
2021/07/31 05:32:09;;;;;;;;;;;;;;;;;;2135729;67;1241;-72
2021/07/31 05:34:34;;;;;;;;;;;;;;;;;;2135467;67;1184;-74
2021/07/31 05:36:59;;;;;;;;;;;;;;;;;;2135825;67;1028;-71
2021/07/31 05:39:24;;;;;;;;;;;;;;;;;;2134722;67;1263;-71
2021/07/31 05:41:50;;;;;;;;;;;;;;;;;;2135999;59;1334;-71
2021/07/31 05:44:15;;;;;;;;;;;;;;;;;;2134987;67;2405;-71
2021/07/31 05:46:40;;;;;;;;;;;;;;;;;;2135609;67;1969;-72
2021/07/31 05:49:06;;;;;;;;;;;;;;;;;;2137333;67;1463;-72
2021/07/31 05:51:31;;;;;;;;;;;;;;;;;;2138258;59;1248;-71
2021/07/31 05:53:56;;;;;;;;;;;;;;;;;;2136269;67;1894;-71
2021/07/31 05:56:21;;;;;;;;;;;;;;;;;;2136491;59;2310;-71
2021/07/31 05:58:46;;;;;;;;;;;;;;;;;;2136665;67;1347;-70
2021/07/31 06:01:12;;;;;;;;;;;;;;;;;;2137135;59;1339;-72
2021/07/31 06:03:37;;;;;;;;;;;;;;;;;;2136471;67;1196;-71
2021/07/31 06:06:03;;;;;;;;;;;;;;;;;;2134773;67;1918;-71
2021/07/31 06:08:28;;;;;;;;;;;;;;;;;;2135588;67;1153;-70
2021/07/31 06:11:00;;;;;;;;;;;;;;;;;;2134840;67;1332;-70
2021/07/31 06:13:25;;;;;;;;;;;;;;;;;;2133838;67;1219;-70
2021/07/31 06:15:50;;;;;;;;;;;;;;;;;;2135756;67;1222;-72
2021/07/31 06:18:15;;;;;;;;;;;;;;;;;;2136048;67;2251;-72
2021/07/31 06:20:40;;;;;;;;;;;;;;;;;;2135494;59;2643;-72
2021/07/31 06:23:06;;;;;;;;;;;;;;;;;;2137024;67;1970;-73
2021/07/31 06:25:31;;;;;;;;;;;;;;;;;;2135814;59;1272;-71
2021/07/31 06:27:56;;;;;;;;;;;;;;;;;;2136178;67;1941;-72
2021/07/31 06:30:21;;;;;;;;;;;;;;;;;;2134885;67;1141;-73
2021/07/31 06:32:48;;;;;;;;;;;;;;;;;;2136200;67;1265;-70
2021/07/31 06:35:13;;;;;;;;;;;;;;;;;;2137610;67;1547;-70
2021/07/31 06:37:39;;;;;;;;;;;;;;;;;;2133993;67;1193;-72
2021/07/31 06:40:04;;;;;;;;;;;;;;;;;;2136642;59;2568;-71
2021/07/31 06:42:29;;;;;;;;;;;;;;;;;;2138127;59;2311;-72
2021/07/31 06:44:54;;;;;;;;;;;;;;;;;;2136551;59;1407;-72
2021/07/31 06:47:20;;;;;;;;;;;;;;;;;;2137320;59;1976;-72
2021/07/31 06:49:45;;;;;;;;;;;;;;;;;;2135902;59;1347;-71
2021/07/31 06:52:12;;;;;;;;;;;;;;;;;;2136402;67;1601;-72
2021/07/31 06:54:37;;;;;;;;;;;;;;;;;;2136231;67;2379;-70
2021/07/31 06:57:02;;;;;;;;;;;;;;;;;;2135424;59;2224;-72
2021/07/31 06:59:27;;;;;;;;;;;;;;;;;;2136802;59;2224;-72
2021/07/31 07:01:52;;;;;;;;;;;;;;;;;;2136706;59;2868;-71
2021/07/31 07:04:17;;;;;;;;;;;;;;;;;;2136461;59;2049;-72
2021/07/31 07:06:43;;;;;;;;;;;;;;;;;;2134135;59;1992;-70
2021/07/31 07:09:09;;;;;;;;;;;;;;;;;;2132302;59;1933;-71
2021/07/31 07:11:34;;;;;;;;;;;;;;;;;;2136695;67;2397;-71
2021/07/31 07:13:59;;;;;;;;;;;;;;;;;;2132408;59;1940;-71
2021/07/31 07:16:24;;;;;;;;;;;;;;;;;;2135514;59;2313;-72
2021/07/31 07:18:50;;;;;;;;;;;;;;;;;;2136569;59;2244;-69
2021/07/31 07:21:15;;;;;;;;;;;;;;;;;;2134908;59;2364;-72
2021/07/31 07:23:40;;;;;;;;;;;;;;;;;;2136097;67;2607;-69
2021/07/31 07:26:09;;;;;;;;;;;;;;;;;;2136213;59;1981;-70
2021/07/31 07:28:35;;;;;;;;;;;;;;;;;;2135422;67;1138;-71
2021/07/31 07:31:00;;;;;;;;;;;;;;;;;;2135352;59;2606;-71
2021/07/31 07:33:25;;;;;;;;;;;;;;;;;;2129420;59;1921;-70
2021/07/31 07:35:51;;;;;;;;;;;;;;;;;;2134768;59;2043;-70
2021/07/31 07:38:16;;;;;;;;;;;;;;;;;;2136602;67;1362;-72
2021/07/31 07:40:42;;;;;;;;;;;;;;;;;;2137506;59;1742;-72
2021/07/31 07:43:07;;;;;;;;;;;;;;;;;;2138989;67;1171;-72
2021/07/31 07:45:32;;;;;;;;;;;;;;;;;;2135386;67;1160;-71
2021/07/31 07:47:58;;;;;;;;;;;;;;;;;;2132266;59;2397;-72
2021/07/31 07:50:23;;;;;;;;;;;;;;;;;;2136317;67;2032;-70
2021/07/31 07:52:48;;;;;;;;;;;;;;;;;;2135548;59;2018;-72
2021/07/31 07:55:13;;;;;;;;;;;;;;;;;;2135613;59;1884;-71
2021/07/31 07:57:40;;;;;;;;;;;;;;;;;;2134763;59;2253;-71
2021/07/31 08:00:07;;;;;;;;;;;;;;;;;;2134749;59;2291;-71
2021/07/31 08:02:32;;;;;;;;;;;;;;;;;;2136001;59;1708;-72
2021/07/31 08:04:57;;;;;;;;;;;;;;;;;;2132049;67;2763;-71
2021/07/31 08:07:22;;;;;;;;;;;;;;;;;;2136847;67;1937;-72
2021/07/31 08:09:48;;;;;;;;;;;;;;;;;;2135576;59;1832;-72
2021/07/31 08:12:13;;;;;;;;;;;;;;;;;;2137966;67;1274;-72
2021/07/31 08:14:38;;;;;;;;;;;;;;;;;;2137697;67;1919;-71
2021/07/31 08:17:03;;;;;;;;;;;;;;;;;;2136009;59;2501;-72
2021/07/31 08:19:29;;;;;;;;;;;;;;;;;;2137797;59;2041;-72
2021/07/31 08:21:54;;;;;;;;;;;;;;;;;;2134812;59;1975;-71
2021/07/31 08:24:19;;;;;;;;;;;;;;;;;;2133710;59;2766;-72
2021/07/31 08:26:45;;;;;;;;;;;;;;;;;;2133778;59;2640;-70
2021/07/31 08:29:10;;;;;;;;;;;;;;;;;;2135323;59;1795;-71
2021/07/31 08:31:41;;;;;;;;;;;;;;;;;;2136807;67;1648;-73
2021/07/31 08:34:06;;;;;;;;;;;;;;;;;;2135051;67;1203;-72
2021/07/31 08:36:31;;;;;;;;;;;;;;;;;;2136883;67;2332;-72
2021/07/31 08:38:57;;;;;;;;;;;;;;;;;;2134225;60;1269;-71
2021/07/31 08:41:22;;;;;;;;;;;;;;;;;;2131260;67;1242;-72
2021/07/31 08:43:48;;;;;;;;;;;;;;;;;;2136857;59;1727;-72
2021/07/31 08:46:13;;;;;;;;;;;;;;;;;;2135533;67;1992;-71
2021/07/31 08:48:39;;;;;;;;;;;;;;;;;;2132182;67;1204;-70
2021/07/31 08:51:05;;;;;;;;;;;;;;;;;;2136097;67;1226;-72
2021/07/31 08:53:30;;;;;;;;;;;;;;;;;;2135225;67;1240;-72
2021/07/31 08:55:56;;;;;;;;;;;;;;;;;;2135016;59;2384;-70
2021/07/31 08:58:24;;;;;;;;;;;;;;;;;;2131858;59;2777;-72
2021/07/31 09:00:50;;;;;;;;;;;;;;;;;;2133164;59;2223;-69
2021/07/31 09:03:16;;;;;;;;;;;;;;;;;;2135391;59;1910;-68
2021/07/31 09:05:42;;;;;;;;;;;;;;;;;;2131920;59;2018;-68
2021/07/31 09:08:08;;;;;;;;;;;;;;;;;;2136152;59;2124;-71
2021/07/31 09:10:34;;;;;;;;;;;;;;;;;;2136334;67;2247;-71
2021/07/31 09:13:01;;;;;;;;;;;;;;;;;;2136270;67;1956;-68
2021/07/31 09:15:36;;;;;;;;;;;;;;;;;;2137083;59;2181;-71
2021/07/31 09:18:20;;;;;;;;;;;;;;;;;;2137230;67;2619;-72
2021/07/31 09:20:54;;;;;;;;;;;;;;;;;;2135105;59;2287;-69
2021/07/31 09:23:20;;;;;;;;;;;;;;;;;;2131829;59;2594;-72
2021/07/31 09:25:58;;;;;;;;;;;;;;;;;;2134078;59;2454;-69
2021/07/31 09:28:23;;;;;;;;;;;;;;;;;;2136398;67;1929;-69
2021/07/31 09:30:50;;;;;;;;;;;;;;;;;;2135636;59;2384;-72
2021/07/31 09:33:16;;;;;;;;;;;;;;;;;;2137315;67;1157;-71
2021/07/31 09:35:42;;;;;;;;;;;;;;;;;;2137999;67;1672;-71
2021/07/31 09:38:07;;;;;;;;;;;;;;;;;;2136337;59;1951;-71
2021/07/31 09:40:32;;;;;;;;;;;;;;;;;;2134394;59;2336;-71
2021/07/31 09:43:25;;;;;;;;;;;;;;;;;;2135426;59;2466;-72
2021/07/31 09:45:51;;;;;;;;;;;;;;;;;;2134165;59;2485;-72
2021/07/31 09:48:16;;;;;;;;;;;;;;;;;;2132265;59;2106;-69
2021/07/31 09:50:43;;;;;;;;;;;;;;;;;;2113116;59;2346;-69
2021/07/31 09:53:24;;;;;;;;;;;;;;;;;;929237;63;10002065;-70
2021/07/31 09:55:51;;;;;;;;;;;;;;;;;;1168017;59;10001823;-69
2021/07/31 09:58:18;;;;;;;;;;;;;;;;;;1849595;59;10000521;-72
2021/07/31 10:00:45;;;;;;;;;;;;;;;;;;2129662;59;2485;-68
2021/07/31 10:03:11;;;;;;;;;;;;;;;;;;2133546;67;1955;-71
2021/07/31 10:05:40;;;;;;;;;;;;;;;;;;2132394;59;3162;-69
2021/07/31 10:08:10;;;;;;;;;;;;;;;;;;2134128;67;1924;-72
2021/07/31 10:10:35;;;;;;;;;;;;;;;;;;2133583;59;2784;-71
2021/07/31 10:13:00;;;;;;;;;;;;;;;;;;2132485;67;3060;-71
2021/07/31 10:15:26;;;;;;;;;;;;;;;;;;2134533;67;1517;-72
2021/07/31 10:17:51;;;;;;;;;;;;;;;;;;2132541;67;3136;-71
2021/07/31 10:20:30;;;;;;;;;;;;;;;;;;2134218;59;2119;-70
2021/07/31 10:22:55;;;;;;;;;;;;;;;;;;2133723;59;1677;-71
2021/07/31 10:25:21;;;;;;;;;;;;;;;;;;2134118;59;1711;-69
2021/07/31 10:27:47;;;;;;;;;;;;;;;;;;2129881;59;2013;-68
2021/07/31 10:30:30;;;;;;;;;;;;;;;;;;2130077;59;2385;-68
2021/07/31 10:32:55;;;;;;;;;;;;;;;;;;2132877;59;2712;-67
2021/07/31 10:35:22;;;;;;;;;;;;;;;;;;2132301;59;2766;-67
2021/07/31 10:37:48;;;;;;;;;;;;;;;;;;2133017;59;2145;-67
2021/07/31 10:40:26;;;;;;;;;;;;;;;;;;2133543;67;1463;-67
2021/07/31 10:42:51;;;;;;;;;;;;;;;;;;2132790;59;2708;-67
2021/07/31 10:45:16;;;;;;;;;;;;;;;;;;2133133;60;2048;-68
2021/07/31 10:47:41;;;;;;;;;;;;;;;;;;2132858;67;2522;-67
2021/07/31 10:50:22;;;;;;;;;;;;;;;;;;2133007;67;1383;-68
2021/07/31 10:52:50;;;;;;;;;;;;;;;;;;2130584;60;2302;-67
2021/07/31 10:55:15;;;;;;;;;;;;;;;;;;2132731;67;1556;-68
2021/07/31 10:57:53;;;;;;;;;;;;;;;;;;2132704;59;2152;-67
2021/07/31 11:00:29;;;;;;;;;;;;;;;;;;2130628;67;3057;-68
2021/07/31 11:02:54;;;;;;;;;;;;;;;;;;2132529;59;2755;-68
2021/07/31 11:05:20;;;;;;;;;;;;;;;;;;2134087;67;1331;-67
2021/07/31 11:07:57;;;;;;;;;;;;;;;;;;2135327;67;1977;-68
2021/07/31 11:10:34;;;;;;;;;;;;;;;;;;2135272;59;1631;-68
2021/07/31 11:13:00;;;;;;;;;;;;;;;;;;2135283;59;1330;-68
2021/07/31 11:15:25;;;;;;;;;;;;;;;;;;2135777;67;1324;-68
2021/07/31 11:17:58;;;;;;;;;;;;;;;;;;2135274;59;1909;-68
2021/07/31 11:20:27;;;;;;;;;;;;;;;;;;2136889;67;1543;-68
2021/07/31 11:22:54;;;;;;;;;;;;;;;;;;2135550;59;2077;-68
2021/07/31 11:25:19;;;;;;;;;;;;;;;;;;2134211;59;1288;-68
2021/07/31 11:27:58;;;;;;;;;;;;;;;;;;2133305;59;2081;-69
2021/07/31 11:30:34;;;;;;;;;;;;;;;;;;2133563;59;2143;-68
2021/07/31 11:33:15;;;;;;;;;;;;;;;;;;2133880;67;1379;-69
2021/07/31 11:35:40;;;;;;;;;;;;;;;;;;2134994;67;1740;-69
2021/07/31 11:38:24;;;;;;;;;;;;;;;;;;2135074;67;1461;-69
2021/07/31 11:41:16;;;;;;;;;;;;;;;;;;2134138;59;2174;-69
2021/07/31 11:43:44;;;;;;;;;;;;;;;;;;2133351;67;1548;-69
2021/07/31 11:46:09;;;;;;;;;;;;;;;;;;2133373;59;2217;-68
2021/07/31 11:48:35;;;;;;;;;;;;;;;;;;2133065;59;2093;-69
2021/07/31 11:51:02;;;;;;;;;;;;;;;;;;2135638;67;2137;-69
2021/07/31 11:53:28;;;;;;;;;;;;;;;;;;2134389;67;1553;-69
2021/07/31 11:56:13;;;;;;;;;;;;;;;;;;2134103;67;2140;-69
2021/07/31 11:58:43;;;;;;;;;;;;;;;;;;2130203;67;2097;-68
2021/07/31 12:01:08;;;;;;;;;;;;;;;;;;2132280;59;3286;-68
2021/07/31 12:03:43;;;;;;;;;;;;;;;;;;2132918;67;3279;-69
2021/07/31 12:06:47;;;;;;;;;;;;;;;;;;2134735;67;1929;-68
2021/07/31 12:09:24;;;;;;;;;;;;;;;;;;2136528;67;1556;-68
2021/07/31 12:11:51;;;;;;;;;;;;;;;;;;2136013;67;1637;-69
2021/07/31 12:14:30;;;;;;;;;;;;;;;;;;2132966;59;2380;-69
2021/07/31 12:17:14;;;;;;;;;;;;;;;;;;2133865;67;2558;-68
2021/07/31 12:19:40;;;;;;;;;;;;;;;;;;2133944;67;2159;-68
2021/07/31 12:22:06;;;;;;;;;;;;;;;;;;2134449;67;1922;-68
2021/07/31 12:24:32;;;;;;;;;;;;;;;;;;2132546;59;1964;-68
2021/07/31 12:26:57;;;;;;;;;;;;;;;;;;2135041;67;1929;-68
2021/07/31 12:29:38;;;;;;;;;;;;;;;;;;2134574;67;1814;-68
2021/07/31 12:32:23;;;;;;;;;;;;;;;;;;2134552;59;1874;-68
2021/07/31 12:34:50;;;;;;;;;;;;;;;;;;2134805;59;2119;-68
2021/07/31 12:37:15;;;;;;;;;;;;;;;;;;2134754;67;1723;-68
2021/07/31 12:39:40;;;;;;;;;;;;;;;;;;2134639;59;2364;-68
2021/07/31 12:42:06;;;;;;;;;;;;;;;;;;2135792;59;2168;-69
2021/07/31 12:44:31;;;;;;;;;;;;;;;;;;2135191;59;1759;-68
2021/07/31 12:46:59;;;;;;;;;;;;;;;;;;2133786;59;2682;-68
2021/07/31 12:49:25;;;;;;;;;;;;;;;;;;2134946;67;1450;-68
2021/07/31 12:51:50;;;;;;;;;;;;;;;;;;2135187;59;1724;-68
2021/07/31 12:54:15;;;;;;;;;;;;;;;;;;2134457;67;1810;-69
2021/07/31 12:56:40;;;;;;;;;;;;;;;;;;2136754;67;1484;-67
2021/07/31 12:59:05;;;;;;;;;;;;;;;;;;2132796;59;2384;-68
2021/07/31 13:01:31;;;;;;;;;;;;;;;;;;2134021;59;3034;-67
2021/07/31 13:03:56;;;;;;;;;;;;;;;;;;2132183;59;3824;-68
2021/07/31 13:06:21;;;;;;;;;;;;;;;;;;2133346;59;2616;-67
2021/07/31 13:08:46;;;;;;;;;;;;;;;;;;2130810;59;2578;-67
2021/07/31 13:11:11;;;;;;;;;;;;;;;;;;2133623;67;2424;-69
2021/07/31 13:13:37;;;;;;;;;;;;;;;;;;2132715;59;2429;-68
2021/07/31 13:16:02;;;;;;;;;;;;;;;;;;2132597;59;2333;-68
2021/07/31 13:18:27;;;;;;;;;;;;;;;;;;2133217;59;2361;-67
2021/07/31 13:20:53;;;;;;;;;;;;;;;;;;2132917;59;2217;-68
2021/07/31 13:23:18;;;;;;;;;;;;;;;;;;2133525;59;2382;-67
2021/07/31 13:25:43;;;;;;;;;;;;;;;;;;2132032;67;2247;-67
2021/07/31 13:28:09;;;;;;;;;;;;;;;;;;2133444;59;2186;-68
2021/07/31 13:30:35;;;;;;;;;;;;;;;;;;2132763;59;2174;-68
2021/07/31 13:33:01;;;;;;;;;;;;;;;;;;2132518;59;2244;-68
2021/07/31 13:35:27;;;;;;;;;;;;;;;;;;2128995;59;2399;-67
2021/07/31 13:37:52;;;;;;;;;;;;;;;;;;2131563;59;2336;-68
2021/07/31 13:40:27;;;;;;;;;;;;;;;;;;2133129;59;2364;-69
2021/07/31 13:42:53;;;;;;;;;;;;;;;;;;2132474;59;2193;-69
2021/07/31 13:45:19;;;;;;;;;;;;;;;;;;2136115;67;2354;-67
2021/07/31 13:47:44;;;;;;;;;;;;;;;;;;2134631;67;2533;-69
2021/07/31 13:50:11;;;;;;;;;;;;;;;;;;2134840;59;2123;-68
2021/07/31 13:52:37;;;;;;;;;;;;;;;;;;2132680;67;2221;-69
2021/07/31 13:55:02;;;;;;;;;;;;;;;;;;2134724;67;1640;-68
2021/07/31 13:57:28;;;;;;;;;;;;;;;;;;2135162;67;1553;-67
2021/07/31 13:59:53;;;;;;;;;;;;;;;;;;2134728;59;1808;-68
2021/07/31 14:02:19;;;;;;;;;;;;;;;;;;2133199;59;2560;-68
2021/07/31 14:04:44;;;;;;;;;;;;;;;;;;2135561;59;3149;-68
2021/07/31 14:07:09;;;;;;;;;;;;;;;;;;2133669;59;1938;-68
2021/07/31 14:09:34;;;;;;;;;;;;;;;;;;2134268;67;1522;-69
2021/07/31 14:12:00;;;;;;;;;;;;;;;;;;2136962;67;1731;-68
2021/07/31 14:14:25;;;;;;;;;;;;;;;;;;2134146;67;1916;-68
2021/07/31 14:16:50;;;;;;;;;;;;;;;;;;2133945;59;2186;-68
2021/07/31 14:19:15;;;;;;;;;;;;;;;;;;2131389;67;2878;-69
2021/07/31 14:21:40;;;;;;;;;;;;;;;;;;2134730;59;2023;-68
2021/07/31 14:24:06;;;;;;;;;;;;;;;;;;2133438;59;1931;-68
2021/07/31 14:26:31;;;;;;;;;;;;;;;;;;2130904;59;1935;-69
2021/07/31 14:28:56;;;;;;;;;;;;;;;;;;2133521;67;1496;-67
2021/07/31 14:31:21;;;;;;;;;;;;;;;;;;2135356;67;2057;-69
2021/07/31 14:33:47;;;;;;;;;;;;;;;;;;2134331;67;2280;-68
2021/07/31 14:36:12;;;;;;;;;;;;;;;;;;2134873;67;1507;-69
2021/07/31 14:38:37;;;;;;;;;;;;;;;;;;2135393;67;2053;-68
2021/07/31 14:41:04;;;;;;;;;;;;;;;;;;2131555;59;1750;-69
2021/07/31 14:43:29;;;;;;;;;;;;;;;;;;2135496;67;1807;-69
2021/07/31 14:45:55;;;;;;;;;;;;;;;;;;2133703;67;2744;-68
2021/07/31 14:48:21;;;;;;;;;;;;;;;;;;2134951;67;1941;-67
2021/07/31 14:50:46;;;;;;;;;;;;;;;;;;2136177;67;1977;-68
2021/07/31 14:53:11;;;;;;;;;;;;;;;;;;2137173;60;1650;-68
2021/07/31 14:55:39;;;;;;;;;;;;;;;;;;2135448;67;1753;-68
2021/07/31 14:58:05;;;;;;;;;;;;;;;;;;2137168;67;1493;-68
2021/07/31 15:00:30;;;;;;;;;;;;;;;;;;2135723;67;1391;-67
2021/07/31 15:02:55;;;;;;;;;;;;;;;;;;2135156;59;2627;-68
2021/07/31 15:05:20;;;;;;;;;;;;;;;;;;2132566;59;3728;-68
2021/07/31 15:07:45;;;;;;;;;;;;;;;;;;2133127;67;1937;-67
2021/07/31 15:10:11;;;;;;;;;;;;;;;;;;2134748;67;1746;-68
2021/07/31 15:12:36;;;;;;;;;;;;;;;;;;2134540;67;1846;-69
2021/07/31 15:15:01;;;;;;;;;;;;;;;;;;2135207;67;1659;-68
2021/07/31 15:17:26;;;;;;;;;;;;;;;;;;2135356;67;1813;-68
2021/07/31 15:19:51;;;;;;;;;;;;;;;;;;2134902;64;2158;-69
2021/07/31 15:22:17;;;;;;;;;;;;;;;;;;2136288;67;1802;-68
2021/07/31 15:24:43;;;;;;;;;;;;;;;;;;2134535;59;2021;-67
2021/07/31 15:27:09;;;;;;;;;;;;;;;;;;2129830;59;3016;-68
2021/07/31 15:29:34;;;;;;;;;;;;;;;;;;2134443;67;1472;-69
2021/07/31 15:31:59;;;;;;;;;;;;;;;;;;2132564;67;1903;-68
2021/07/31 15:34:24;;;;;;;;;;;;;;;;;;2134055;67;1537;-68
2021/07/31 15:36:49;;;;;;;;;;;;;;;;;;2134375;67;1921;-68
2021/07/31 15:39:17;;;;;;;;;;;;;;;;;;2134916;67;1884;-68
2021/07/31 15:41:42;;;;;;;;;;;;;;;;;;2134424;59;1942;-68
2021/07/31 15:44:07;;;;;;;;;;;;;;;;;;2132531;67;1568;-67
2021/07/31 15:46:32;;;;;;;;;;;;;;;;;;2134839;67;2468;-68
2021/07/31 15:48:58;;;;;;;;;;;;;;;;;;2135758;59;1623;-67
2021/07/31 15:51:23;;;;;;;;;;;;;;;;;;2132798;67;1491;-67
2021/07/31 15:53:48;;;;;;;;;;;;;;;;;;2136219;67;1537;-69
2021/07/31 15:56:14;;;;;;;;;;;;;;;;;;2136441;67;1426;-68
2021/07/31 15:58:39;;;;;;;;;;;;;;;;;;2134397;67;1770;-67
2021/07/31 16:01:04;;;;;;;;;;;;;;;;;;2135845;59;1493;-68
2021/07/31 16:03:30;;;;;;;;;;;;;;;;;;2137056;67;1302;-68
2021/07/31 16:05:55;;;;;;;;;;;;;;;;;;2131366;60;3403;-69
2021/07/31 16:08:20;;;;;;;;;;;;;;;;;;2133841;67;1932;-68
2021/07/31 16:10:46;;;;;;;;;;;;;;;;;;2136007;67;1873;-67
2021/07/31 16:13:11;;;;;;;;;;;;;;;;;;2136888;67;1327;-68
2021/07/31 16:15:39;;;;;;;;;;;;;;;;;;2135903;67;1985;-67
2021/07/31 16:18:04;;;;;;;;;;;;;;;;;;2135199;59;2177;-68
2021/07/31 16:20:29;;;;;;;;;;;;;;;;;;2136969;67;1343;-68
2021/07/31 16:22:55;;;;;;;;;;;;;;;;;;2136734;67;1384;-67
2021/07/31 16:25:20;;;;;;;;;;;;;;;;;;2135572;59;1480;-67
2021/07/31 16:27:45;;;;;;;;;;;;;;;;;;2137039;67;1982;-68
2021/07/31 16:30:11;;;;;;;;;;;;;;;;;;2135550;67;1540;-68
2021/07/31 16:32:36;;;;;;;;;;;;;;;;;;2133028;59;1976;-68
2021/07/31 16:35:01;;;;;;;;;;;;;;;;;;2135063;67;1826;-67
2021/07/31 16:37:27;;;;;;;;;;;;;;;;;;2134449;67;1642;-68
2021/07/31 16:39:52;;;;;;;;;;;;;;;;;;2134862;67;1644;-68
2021/07/31 16:42:17;;;;;;;;;;;;;;;;;;2134297;67;1705;-68
2021/07/31 16:44:42;;;;;;;;;;;;;;;;;;2134903;67;1689;-69
2021/07/31 16:47:07;;;;;;;;;;;;;;;;;;2133016;67;2857;-68
2021/07/31 16:49:32;;;;;;;;;;;;;;;;;;2135861;67;1628;-68
2021/07/31 16:51:58;;;;;;;;;;;;;;;;;;2136768;67;1509;-67
2021/07/31 16:54:23;;;;;;;;;;;;;;;;;;2134673;67;1513;-68
2021/07/31 16:56:51;;;;;;;;;;;;;;;;;;2137330;67;1534;-68
2021/07/31 16:59:17;;;;;;;;;;;;;;;;;;2134663;67;1621;-68